sensor_id;sensor_type;location;lat;lon;timestamp;P1;durP1;ratioP1;P2;durP2;ratioP2
39930;SDS011;26635;-35.248;149.138;2023-04-06T00:00:59;2.38;;;0.70;;
39930;SDS011;26635;-35.248;149.138;2023-04-06T00:03:32;2.50;;;0.50;;
39930;SDS011;26635;-35.248;149.138;2023-04-06T00:06:09;1.83;;;0.60;;
39930;SDS011;26635;-35.248;149.138;2023-04-06T00:08:42;2.33;;;0.60;;
39930;SDS011;26635;-35.248;149.138;2023-04-06T00:11:13;1.52;;;1.05;;
39930;SDS011;26635;-35.248;149.138;2023-04-06T00:13:50;2.25;;;0.40;;
39930;SDS011;26635;-35.248;149.138;2023-04-06T00:16:20;1.55;;;0.50;;
39930;SDS011;26635;-35.248;149.138;2023-04-06T00:19:01;2.17;;;0.60;;
39930;SDS011;26635;-35.248;149.138;2023-04-06T00:21:34;1.77;;;0.47;;
39930;SDS011;26635;-35.248;149.138;2023-04-06T00:24:06;1.95;;;0.50;;
39930;SDS011;26635;-35.248;149.138;2023-04-06T00:26:37;1.05;;;0.35;;
39930;SDS011;26635;-35.248;149.138;2023-04-06T00:29:26;1.23;;;0.43;;
39930;SDS011;26635;-35.248;149.138;2023-04-06T00:31:57;2.50;;;0.63;;
39930;SDS011;26635;-35.248;149.138;2023-04-06T00:34:28;1.50;;;0.50;;
39930;SDS011;26635;-35.248;149.138;2023-04-06T00:36:59;1.38;;;0.57;;
39930;SDS011;26635;-35.248;149.138;2023-04-06T00:39:30;3.03;;;0.75;;
39930;SDS011;26635;-35.248;149.138;2023-04-06T00:42:01;3.20;;;0.95;;
39930;SDS011;26635;-35.248;149.138;2023-04-06T00:44:45;2.33;;;0.50;;
39930;SDS011;26635;-35.248;149.138;2023-04-06T00:47:17;0.98;;;0.47;;
39930;SDS011;26635;-35.248;149.138;2023-04-06T00:49:48;1.77;;;0.35;;
39930;SDS011;26635;-35.248;149.138;2023-04-06T00:52:19;0.57;;;0.20;;
39930;SDS011;26635;-35.248;149.138;2023-04-06T00:54:50;1.27;;;0.40;;
39930;SDS011;26635;-35.248;149.138;2023-04-06T00:57:22;1.40;;;0.60;;
39930;SDS011;26635;-35.248;149.138;2023-04-06T00:59:54;1.00;;;0.40;;
39930;SDS011;26635;-35.248;149.138;2023-04-06T01:02:26;2.70;;;0.40;;
39930;SDS011;26635;-35.248;149.138;2023-04-06T01:04:57;2.95;;;0.80;;
39930;SDS011;26635;-35.248;149.138;2023-04-06T01:07:28;2.25;;;0.40;;
39930;SDS011;26635;-35.248;149.138;2023-04-06T01:09:59;1.88;;;0.50;;
39930;SDS011;26635;-35.248;149.138;2023-04-06T01:12:33;0.73;;;0.40;;
39930;SDS011;26635;-35.248;149.138;2023-04-06T01:15:05;1.80;;;0.55;;
39930;SDS011;26635;-35.248;149.138;2023-04-06T01:17:39;1.35;;;0.30;;
39930;SDS011;26635;-35.248;149.138;2023-04-06T01:20:10;1.02;;;0.40;;
39930;SDS011;26635;-35.248;149.138;2023-04-06T01:22:41;2.72;;;0.82;;
39930;SDS011;26635;-35.248;149.138;2023-04-06T01:25:14;0.52;;;0.40;;
39930;SDS011;26635;-35.248;149.138;2023-04-06T01:27:45;1.60;;;0.30;;
39930;SDS011;26635;-35.248;149.138;2023-04-06T01:30:16;1.20;;;0.40;;
39930;SDS011;26635;-35.248;149.138;2023-04-06T01:32:47;1.85;;;0.40;;
39930;SDS011;26635;-35.248;149.138;2023-04-06T01:35:20;1.58;;;0.82;;
39930;SDS011;26635;-35.248;149.138;2023-04-06T01:37:51;1.38;;;0.30;;
39930;SDS011;26635;-35.248;149.138;2023-04-06T01:40:21;1.77;;;0.52;;
39930;SDS011;26635;-35.248;149.138;2023-04-06T01:42:53;0.65;;;0.45;;
39930;SDS011;26635;-35.248;149.138;2023-04-06T01:45:23;0.82;;;0.35;;
39930;SDS011;26635;-35.248;149.138;2023-04-06T01:47:55;1.35;;;0.40;;
39930;SDS011;26635;-35.248;149.138;2023-04-06T01:50:26;1.90;;;1.00;;
39930;SDS011;26635;-35.248;149.138;2023-04-06T01:52:57;1.77;;;0.40;;
39930;SDS011;26635;-35.248;149.138;2023-04-06T01:55:28;2.88;;;0.47;;
39930;SDS011;26635;-35.248;149.138;2023-04-06T01:57:59;1.40;;;0.40;;
39930;SDS011;26635;-35.248;149.138;2023-04-06T02:00:30;1.98;;;1.02;;
39930;SDS011;26635;-35.248;149.138;2023-04-06T02:03:02;0.73;;;0.40;;
39930;SDS011;26635;-35.248;149.138;2023-04-06T02:05:35;2.63;;;0.40;;
39930;SDS011;26635;-35.248;149.138;2023-04-06T02:08:08;2.25;;;0.93;;
39930;SDS011;26635;-35.248;149.138;2023-04-06T02:10:39;2.15;;;0.50;;
39930;SDS011;26635;-35.248;149.138;2023-04-06T02:13:10;0.90;;;0.50;;
39930;SDS011;26635;-35.248;149.138;2023-04-06T02:15:41;1.75;;;0.63;;
39930;SDS011;26635;-35.248;149.138;2023-04-06T02:18:12;1.90;;;0.50;;
39930;SDS011;26635;-35.248;149.138;2023-04-06T02:20:43;2.88;;;1.00;;
39930;SDS011;26635;-35.248;149.138;2023-04-06T02:23:15;3.25;;;1.05;;
39930;SDS011;26635;-35.248;149.138;2023-04-06T02:25:46;0.75;;;0.55;;
39930;SDS011;26635;-35.248;149.138;2023-04-06T02:28:17;1.15;;;0.40;;
39930;SDS011;26635;-35.248;149.138;2023-04-06T02:30:48;1.05;;;0.45;;
39930;SDS011;26635;-35.248;149.138;2023-04-06T02:33:19;0.60;;;0.40;;
39930;SDS011;26635;-35.248;149.138;2023-04-06T02:35:51;3.38;;;0.80;;
39930;SDS011;26635;-35.248;149.138;2023-04-06T02:38:24;2.10;;;0.60;;
39930;SDS011;26635;-35.248;149.138;2023-04-06T02:40:55;1.10;;;0.45;;
39930;SDS011;26635;-35.248;149.138;2023-04-06T02:43:27;1.02;;;0.50;;
39930;SDS011;26635;-35.248;149.138;2023-04-06T02:45:58;0.80;;;0.57;;
39930;SDS011;26635;-35.248;149.138;2023-04-06T02:48:29;1.98;;;0.60;;
39930;SDS011;26635;-35.248;149.138;2023-04-06T02:51:01;1.67;;;0.50;;
39930;SDS011;26635;-35.248;149.138;2023-04-06T02:53:33;2.17;;;0.65;;
39930;SDS011;26635;-35.248;149.138;2023-04-06T02:56:04;0.95;;;0.60;;
39930;SDS011;26635;-35.248;149.138;2023-04-06T02:58:35;2.38;;;0.63;;
39930;SDS011;26635;-35.248;149.138;2023-04-06T03:01:06;1.35;;;0.75;;
39930;SDS011;26635;-35.248;149.138;2023-04-06T03:03:37;2.00;;;1.08;;
39930;SDS011;26635;-35.248;149.138;2023-04-06T03:06:08;0.90;;;0.70;;
39930;SDS011;26635;-35.248;149.138;2023-04-06T03:08:39;2.30;;;0.82;;
39930;SDS011;26635;-35.248;149.138;2023-04-06T03:11:09;3.05;;;0.73;;
39930;SDS011;26635;-35.248;149.138;2023-04-06T03:13:40;3.22;;;1.00;;
39930;SDS011;26635;-35.248;149.138;2023-04-06T03:16:11;2.92;;;1.10;;
39930;SDS011;26635;-35.248;149.138;2023-04-06T03:18:42;4.35;;;1.17;;
39930;SDS011;26635;-35.248;149.138;2023-04-06T03:21:14;2.78;;;1.63;;
39930;SDS011;26635;-35.248;149.138;2023-04-06T03:23:45;5.38;;;2.00;;
39930;SDS011;26635;-35.248;149.138;2023-04-06T03:26:20;5.00;;;1.17;;
39930;SDS011;26635;-35.248;149.138;2023-04-06T03:28:51;2.42;;;0.98;;
39930;SDS011;26635;-35.248;149.138;2023-04-06T03:31:23;2.60;;;1.27;;
39930;SDS011;26635;-35.248;149.138;2023-04-06T03:33:54;3.53;;;1.15;;
39930;SDS011;26635;-35.248;149.138;2023-04-06T03:36:25;1.40;;;0.60;;
39930;SDS011;26635;-35.248;149.138;2023-04-06T03:38:58;1.48;;;0.75;;
39930;SDS011;26635;-35.248;149.138;2023-04-06T03:41:30;1.67;;;0.90;;
39930;SDS011;26635;-35.248;149.138;2023-04-06T03:44:01;2.55;;;0.73;;
39930;SDS011;26635;-35.248;149.138;2023-04-06T03:46:31;1.67;;;0.95;;
39930;SDS011;26635;-35.248;149.138;2023-04-06T03:49:03;3.22;;;1.00;;
39930;SDS011;26635;-35.248;149.138;2023-04-06T03:51:34;3.72;;;1.10;;
39930;SDS011;26635;-35.248;149.138;2023-04-06T03:54:06;1.40;;;0.70;;
39930;SDS011;26635;-35.248;149.138;2023-04-06T03:56:38;1.45;;;0.90;;
39930;SDS011;26635;-35.248;149.138;2023-04-06T03:59:09;1.63;;;0.90;;
39930;SDS011;26635;-35.248;149.138;2023-04-06T04:01:40;3.05;;;0.77;;
39930;SDS011;26635;-35.248;149.138;2023-04-06T04:04:12;1.05;;;0.70;;
39930;SDS011;26635;-35.248;149.138;2023-04-06T04:06:45;1.58;;;1.17;;
39930;SDS011;26635;-35.248;149.138;2023-04-06T04:09:16;2.45;;;1.00;;
39930;SDS011;26635;-35.248;149.138;2023-04-06T04:11:47;2.05;;;0.90;;
39930;SDS011;26635;-35.248;149.138;2023-04-06T04:14:18;2.72;;;1.30;;
39930;SDS011;26635;-35.248;149.138;2023-04-06T04:16:49;2.08;;;1.38;;
39930;SDS011;26635;-35.248;149.138;2023-04-06T04:19:20;2.83;;;1.25;;
39930;SDS011;26635;-35.248;149.138;2023-04-06T04:21:51;1.88;;;0.95;;
39930;SDS011;26635;-35.248;149.138;2023-04-06T04:24:23;2.47;;;1.60;;
39930;SDS011;26635;-35.248;149.138;2023-04-06T04:26:53;2.65;;;1.30;;
39930;SDS011;26635;-35.248;149.138;2023-04-06T04:29:24;1.77;;;1.10;;
39930;SDS011;26635;-35.248;149.138;2023-04-06T04:31:55;3.25;;;1.20;;
39930;SDS011;26635;-35.248;149.138;2023-04-06T04:34:27;2.42;;;1.00;;
39930;SDS011;26635;-35.248;149.138;2023-04-06T04:37:00;1.50;;;1.20;;
39930;SDS011;26635;-35.248;149.138;2023-04-06T04:39:31;2.78;;;1.58;;
39930;SDS011;26635;-35.248;149.138;2023-04-06T04:42:02;2.80;;;1.35;;
39930;SDS011;26635;-35.248;149.138;2023-04-06T04:44:34;1.80;;;1.13;;
39930;SDS011;26635;-35.248;149.138;2023-04-06T04:47:05;2.05;;;1.20;;
39930;SDS011;26635;-35.248;149.138;2023-04-06T04:49:36;2.35;;;1.30;;
39930;SDS011;26635;-35.248;149.138;2023-04-06T04:52:08;1.95;;;1.20;;
39930;SDS011;26635;-35.248;149.138;2023-04-06T04:54:38;2.78;;;1.15;;
39930;SDS011;26635;-35.248;149.138;2023-04-06T04:57:10;1.88;;;1.20;;
39930;SDS011;26635;-35.248;149.138;2023-04-06T04:59:42;2.72;;;1.10;;
39930;SDS011;26635;-35.248;149.138;2023-04-06T05:02:13;1.80;;;1.10;;
39930;SDS011;26635;-35.248;149.138;2023-04-06T05:04:44;2.00;;;1.00;;
39930;SDS011;26635;-35.248;149.138;2023-04-06T05:07:15;1.70;;;0.90;;
39930;SDS011;26635;-35.248;149.138;2023-04-06T05:09:47;1.52;;;0.80;;
39930;SDS011;26635;-35.248;149.138;2023-04-06T05:12:19;1.70;;;1.00;;
39930;SDS011;26635;-35.248;149.138;2023-04-06T05:14:50;1.77;;;0.70;;
39930;SDS011;26635;-35.248;149.138;2023-04-06T05:17:21;3.33;;;0.82;;
39930;SDS011;26635;-35.248;149.138;2023-04-06T05:19:53;2.85;;;0.90;;
39930;SDS011;26635;-35.248;149.138;2023-04-06T05:22:24;1.45;;;0.70;;
39930;SDS011;26635;-35.248;149.138;2023-04-06T05:24:56;2.95;;;0.70;;
39930;SDS011;26635;-35.248;149.138;2023-04-06T05:27:27;1.60;;;1.00;;
39930;SDS011;26635;-35.248;149.138;2023-04-06T05:29:58;3.15;;;1.00;;
39930;SDS011;26635;-35.248;149.138;2023-04-06T05:32:29;0.75;;;0.68;;
39930;SDS011;26635;-35.248;149.138;2023-04-06T05:34:59;2.28;;;1.10;;
39930;SDS011;26635;-35.248;149.138;2023-04-06T05:37:35;2.00;;;1.00;;
39930;SDS011;26635;-35.248;149.138;2023-04-06T05:40:09;0.60;;;0.43;;
39930;SDS011;26635;-35.248;149.138;2023-04-06T05:42:41;1.85;;;1.00;;
39930;SDS011;26635;-35.248;149.138;2023-04-06T05:45:16;1.92;;;0.95;;
39930;SDS011;26635;-35.248;149.138;2023-04-06T05:47:47;1.70;;;0.80;;
39930;SDS011;26635;-35.248;149.138;2023-04-06T05:50:27;1.10;;;0.60;;
39930;SDS011;26635;-35.248;149.138;2023-04-06T05:52:58;1.83;;;1.05;;
39930;SDS011;26635;-35.248;149.138;2023-04-06T05:55:29;0.95;;;0.65;;
39930;SDS011;26635;-35.248;149.138;2023-04-06T05:58:00;1.27;;;0.80;;
39930;SDS011;26635;-35.248;149.138;2023-04-06T06:00:31;1.90;;;1.10;;
39930;SDS011;26635;-35.248;149.138;2023-04-06T06:03:03;1.98;;;1.00;;
39930;SDS011;26635;-35.248;149.138;2023-04-06T06:05:39;2.55;;;0.85;;
39930;SDS011;26635;-35.248;149.138;2023-04-06T06:08:10;2.78;;;0.90;;
39930;SDS011;26635;-35.248;149.138;2023-04-06T06:10:41;1.20;;;1.00;;
39930;SDS011;26635;-35.248;149.138;2023-04-06T06:13:15;1.45;;;0.80;;
39930;SDS011;26635;-35.248;149.138;2023-04-06T06:15:46;2.15;;;1.10;;
39930;SDS011;26635;-35.248;149.138;2023-04-06T06:18:17;2.38;;;1.08;;
39930;SDS011;26635;-35.248;149.138;2023-04-06T06:20:49;3.10;;;0.93;;
39930;SDS011;26635;-35.248;149.138;2023-04-06T06:23:20;2.15;;;0.88;;
39930;SDS011;26635;-35.248;149.138;2023-04-06T06:25:51;3.72;;;0.90;;
39930;SDS011;26635;-35.248;149.138;2023-04-06T06:28:22;1.67;;;1.00;;
39930;SDS011;26635;-35.248;149.138;2023-04-06T06:30:54;2.42;;;0.77;;
39930;SDS011;26635;-35.248;149.138;2023-04-06T06:33:26;1.08;;;0.57;;
39930;SDS011;26635;-35.248;149.138;2023-04-06T06:35:58;2.25;;;0.90;;
39930;SDS011;26635;-35.248;149.138;2023-04-06T06:38:30;1.63;;;1.05;;
39930;SDS011;26635;-35.248;149.138;2023-04-06T06:41:01;1.65;;;1.15;;
39930;SDS011;26635;-35.248;149.138;2023-04-06T06:43:32;1.95;;;0.75;;
39930;SDS011;26635;-35.248;149.138;2023-04-06T06:46:04;1.42;;;0.70;;
39930;SDS011;26635;-35.248;149.138;2023-04-06T06:48:36;2.50;;;0.80;;
39930;SDS011;26635;-35.248;149.138;2023-04-06T06:51:08;2.53;;;0.70;;
39930;SDS011;26635;-35.248;149.138;2023-04-06T06:53:40;1.85;;;0.70;;
39930;SDS011;26635;-35.248;149.138;2023-04-06T06:56:11;1.85;;;0.60;;
39930;SDS011;26635;-35.248;149.138;2023-04-06T06:58:42;1.98;;;0.80;;
39930;SDS011;26635;-35.248;149.138;2023-04-06T07:01:13;1.85;;;0.93;;
39930;SDS011;26635;-35.248;149.138;2023-04-06T07:03:44;2.05;;;0.70;;
39930;SDS011;26635;-35.248;149.138;2023-04-06T07:06:14;1.45;;;0.73;;
39930;SDS011;26635;-35.248;149.138;2023-04-06T07:08:44;1.25;;;0.65;;
39930;SDS011;26635;-35.248;149.138;2023-04-06T07:11:15;2.70;;;0.60;;
39930;SDS011;26635;-35.248;149.138;2023-04-06T07:13:45;2.55;;;0.80;;
39930;SDS011;26635;-35.248;149.138;2023-04-06T07:16:16;1.08;;;0.98;;
39930;SDS011;26635;-35.248;149.138;2023-04-06T07:18:49;2.85;;;0.93;;
39930;SDS011;26635;-35.248;149.138;2023-04-06T07:21:20;1.00;;;0.70;;
39930;SDS011;26635;-35.248;149.138;2023-04-06T07:23:51;1.42;;;0.50;;
39930;SDS011;26635;-35.248;149.138;2023-04-06T07:26:22;1.58;;;0.55;;
39930;SDS011;26635;-35.248;149.138;2023-04-06T07:28:53;0.90;;;0.60;;
39930;SDS011;26635;-35.248;149.138;2023-04-06T07:31:24;2.97;;;0.73;;
39930;SDS011;26635;-35.248;149.138;2023-04-06T07:33:55;5.10;;;0.70;;
39930;SDS011;26635;-35.248;149.138;2023-04-06T07:36:26;2.80;;;1.40;;
39930;SDS011;26635;-35.248;149.138;2023-04-06T07:38:57;1.30;;;0.70;;
39930;SDS011;26635;-35.248;149.138;2023-04-06T07:41:48;1.85;;;0.95;;
39930;SDS011;26635;-35.248;149.138;2023-04-06T07:44:39;1.60;;;0.60;;
39930;SDS011;26635;-35.248;149.138;2023-04-06T07:47:11;1.35;;;0.60;;
39930;SDS011;26635;-35.248;149.138;2023-04-06T07:49:42;5.03;;;0.90;;
39930;SDS011;26635;-35.248;149.138;2023-04-06T07:52:15;1.52;;;0.82;;
39930;SDS011;26635;-35.248;149.138;2023-04-06T07:54:46;1.33;;;0.80;;
39930;SDS011;26635;-35.248;149.138;2023-04-06T07:57:18;1.45;;;0.93;;
39930;SDS011;26635;-35.248;149.138;2023-04-06T07:59:49;1.40;;;0.90;;
39930;SDS011;26635;-35.248;149.138;2023-04-06T08:02:21;3.97;;;1.17;;
39930;SDS011;26635;-35.248;149.138;2023-04-06T08:04:53;1.95;;;1.10;;
39930;SDS011;26635;-35.248;149.138;2023-04-06T08:07:24;2.42;;;1.33;;
39930;SDS011;26635;-35.248;149.138;2023-04-06T08:09:56;2.72;;;1.30;;
39930;SDS011;26635;-35.248;149.138;2023-04-06T08:12:27;2.15;;;1.10;;
39930;SDS011;26635;-35.248;149.138;2023-04-06T08:14:58;2.30;;;1.10;;
39930;SDS011;26635;-35.248;149.138;2023-04-06T08:17:29;2.15;;;0.80;;
39930;SDS011;26635;-35.248;149.138;2023-04-06T08:20:02;2.25;;;0.90;;
39930;SDS011;26635;-35.248;149.138;2023-04-06T08:22:33;2.33;;;1.33;;
39930;SDS011;26635;-35.248;149.138;2023-04-06T08:25:04;1.70;;;1.25;;
39930;SDS011;26635;-35.248;149.138;2023-04-06T08:27:36;3.28;;;1.17;;
39930;SDS011;26635;-35.248;149.138;2023-04-06T08:30:07;7.20;;;1.58;;
39930;SDS011;26635;-35.248;149.138;2023-04-06T08:32:40;1.95;;;1.15;;
39930;SDS011;26635;-35.248;149.138;2023-04-06T08:35:11;3.80;;;1.30;;
39930;SDS011;26635;-35.248;149.138;2023-04-06T08:37:43;1.98;;;1.20;;
39930;SDS011;26635;-35.248;149.138;2023-04-06T08:40:14;3.75;;;2.13;;
39930;SDS011;26635;-35.248;149.138;2023-04-06T08:42:56;3.95;;;1.50;;
39930;SDS011;26635;-35.248;149.138;2023-04-06T08:45:31;2.38;;;1.23;;
39930;SDS011;26635;-35.248;149.138;2023-04-06T08:48:03;1.73;;;1.20;;
39930;SDS011;26635;-35.248;149.138;2023-04-06T08:50:35;3.42;;;1.30;;
39930;SDS011;26635;-35.248;149.138;2023-04-06T08:53:10;2.58;;;1.35;;
39930;SDS011;26635;-35.248;149.138;2023-04-06T08:55:42;2.20;;;1.13;;
39930;SDS011;26635;-35.248;149.138;2023-04-06T08:58:14;4.30;;;1.10;;
39930;SDS011;26635;-35.248;149.138;2023-04-06T09:01:06;2.30;;;1.27;;
39930;SDS011;26635;-35.248;149.138;2023-04-06T09:03:40;3.83;;;1.58;;
39930;SDS011;26635;-35.248;149.138;2023-04-06T09:06:13;3.03;;;1.50;;
39930;SDS011;26635;-35.248;149.138;2023-04-06T09:08:45;2.67;;;1.40;;
39930;SDS011;26635;-35.248;149.138;2023-04-06T09:11:17;3.67;;;1.23;;
39930;SDS011;26635;-35.248;149.138;2023-04-06T09:13:51;3.05;;;1.80;;
39930;SDS011;26635;-35.248;149.138;2023-04-06T09:16:26;2.33;;;2.00;;
39930;SDS011;26635;-35.248;149.138;2023-04-06T09:19:03;2.53;;;1.70;;
39930;SDS011;26635;-35.248;149.138;2023-04-06T09:21:34;2.45;;;1.48;;
39930;SDS011;26635;-35.248;149.138;2023-04-06T09:24:06;2.33;;;1.30;;
39930;SDS011;26635;-35.248;149.138;2023-04-06T09:26:47;5.05;;;1.58;;
39930;SDS011;26635;-35.248;149.138;2023-04-06T09:29:24;3.15;;;1.52;;
39930;SDS011;26635;-35.248;149.138;2023-04-06T09:32:02;1.90;;;1.23;;
39930;SDS011;26635;-35.248;149.138;2023-04-06T09:34:37;2.83;;;0.70;;
39930;SDS011;26635;-35.248;149.138;2023-04-06T09:37:12;1.52;;;1.00;;
39930;SDS011;26635;-35.248;149.138;2023-04-06T09:39:44;2.72;;;1.10;;
39930;SDS011;26635;-35.248;149.138;2023-04-06T09:42:34;1.75;;;1.20;;
39930;SDS011;26635;-35.248;149.138;2023-04-06T09:45:05;7.35;;;1.20;;
39930;SDS011;26635;-35.248;149.138;2023-04-06T09:47:37;3.90;;;1.70;;
39930;SDS011;26635;-35.248;149.138;2023-04-06T09:50:12;3.05;;;1.23;;
39930;SDS011;26635;-35.248;149.138;2023-04-06T09:52:51;2.72;;;1.10;;
39930;SDS011;26635;-35.248;149.138;2023-04-06T09:55:33;1.50;;;1.10;;
39930;SDS011;26635;-35.248;149.138;2023-04-06T09:58:09;3.92;;;1.27;;
39930;SDS011;26635;-35.248;149.138;2023-04-06T10:01:06;4.35;;;1.13;;
39930;SDS011;26635;-35.248;149.138;2023-04-06T10:03:51;6.15;;;1.70;;
39930;SDS011;26635;-35.248;149.138;2023-04-06T10:06:31;1.70;;;1.30;;
39930;SDS011;26635;-35.248;149.138;2023-04-06T10:09:04;2.13;;;1.30;;
39930;SDS011;26635;-35.248;149.138;2023-04-06T10:11:38;2.10;;;1.00;;
39930;SDS011;26635;-35.248;149.138;2023-04-06T10:14:11;2.00;;;0.90;;
39930;SDS011;26635;-35.248;149.138;2023-04-06T10:16:43;1.35;;;0.80;;
39930;SDS011;26635;-35.248;149.138;2023-04-06T10:19:25;1.80;;;0.73;;
39930;SDS011;26635;-35.248;149.138;2023-04-06T10:21:59;2.97;;;0.82;;
39930;SDS011;26635;-35.248;149.138;2023-04-06T10:24:33;5.57;;;1.63;;
39930;SDS011;26635;-35.248;149.138;2023-04-06T10:27:06;4.50;;;1.02;;
39930;SDS011;26635;-35.248;149.138;2023-04-06T10:29:43;2.15;;;0.80;;
39930;SDS011;26635;-35.248;149.138;2023-04-06T10:32:17;1.30;;;0.85;;
39930;SDS011;26635;-35.248;149.138;2023-04-06T10:34:48;2.13;;;1.15;;
39930;SDS011;26635;-35.248;149.138;2023-04-06T10:37:20;3.80;;;1.10;;
39930;SDS011;26635;-35.248;149.138;2023-04-06T10:39:54;1.80;;;1.05;;
39930;SDS011;26635;-35.248;149.138;2023-04-06T10:42:36;1.17;;;0.70;;
39930;SDS011;26635;-35.248;149.138;2023-04-06T10:45:07;1.75;;;0.98;;
39930;SDS011;26635;-35.248;149.138;2023-04-06T10:47:48;1.13;;;0.60;;
39930;SDS011;26635;-35.248;149.138;2023-04-06T10:50:21;2.58;;;1.92;;
39930;SDS011;26635;-35.248;149.138;2023-04-06T10:52:59;2.25;;;1.25;;
39930;SDS011;26635;-35.248;149.138;2023-04-06T10:55:30;2.75;;;1.17;;
39930;SDS011;26635;-35.248;149.138;2023-04-06T10:58:01;1.85;;;0.73;;
39930;SDS011;26635;-35.248;149.138;2023-04-06T11:00:35;1.95;;;1.02;;
39930;SDS011;26635;-35.248;149.138;2023-04-06T11:03:17;1.67;;;1.30;;
39930;SDS011;26635;-35.248;149.138;2023-04-06T11:05:48;4.10;;;1.75;;
39930;SDS011;26635;-35.248;149.138;2023-04-06T11:08:26;2.83;;;1.27;;
39930;SDS011;26635;-35.248;149.138;2023-04-06T11:11:13;3.67;;;1.30;;
39930;SDS011;26635;-35.248;149.138;2023-04-06T11:13:57;1.33;;;0.90;;
39930;SDS011;26635;-35.248;149.138;2023-04-06T11:16:31;3.92;;;1.02;;
39930;SDS011;26635;-35.248;149.138;2023-04-06T11:19:03;2.17;;;1.38;;
39930;SDS011;26635;-35.248;149.138;2023-04-06T11:21:41;3.45;;;1.65;;
39930;SDS011;26635;-35.248;149.138;2023-04-06T11:24:18;2.88;;;1.30;;
39930;SDS011;26635;-35.248;149.138;2023-04-06T11:29:29;1.98;;;1.10;;
39930;SDS011;26635;-35.248;149.138;2023-04-06T11:32:02;2.03;;;1.10;;
39930;SDS011;26635;-35.248;149.138;2023-04-06T11:34:38;3.63;;;1.63;;
39930;SDS011;26635;-35.248;149.138;2023-04-06T11:37:10;4.40;;;2.38;;
39930;SDS011;26635;-35.248;149.138;2023-04-06T11:39:51;3.85;;;1.73;;
39930;SDS011;26635;-35.248;149.138;2023-04-06T11:42:26;3.42;;;1.55;;
39930;SDS011;26635;-35.248;149.138;2023-04-06T11:44:58;7.10;;;2.08;;
39930;SDS011;26635;-35.248;149.138;2023-04-06T11:47:30;3.20;;;1.70;;
39930;SDS011;26635;-35.248;149.138;2023-04-06T11:50:05;5.00;;;1.73;;
39930;SDS011;26635;-35.248;149.138;2023-04-06T11:52:37;4.03;;;2.00;;
39930;SDS011;26635;-35.248;149.138;2023-04-06T11:55:12;2.78;;;1.67;;
39930;SDS011;26635;-35.248;149.138;2023-04-06T11:57:50;3.85;;;1.40;;
39930;SDS011;26635;-35.248;149.138;2023-04-06T12:00:21;3.67;;;1.70;;
39930;SDS011;26635;-35.248;149.138;2023-04-06T12:02:51;4.50;;;2.00;;
39930;SDS011;26635;-35.248;149.138;2023-04-06T12:05:22;1.83;;;1.15;;
39930;SDS011;26635;-35.248;149.138;2023-04-06T12:07:53;2.22;;;1.20;;
39930;SDS011;26635;-35.248;149.138;2023-04-06T12:10:28;2.33;;;1.05;;
39930;SDS011;26635;-35.248;149.138;2023-04-06T12:12:58;1.90;;;1.25;;
39930;SDS011;26635;-35.248;149.138;2023-04-06T12:15:29;2.95;;;1.30;;
39930;SDS011;26635;-35.248;149.138;2023-04-06T12:18:00;3.08;;;1.10;;
39930;SDS011;26635;-35.248;149.138;2023-04-06T12:20:31;2.20;;;1.15;;
39930;SDS011;26635;-35.248;149.138;2023-04-06T12:23:01;2.53;;;1.40;;
39930;SDS011;26635;-35.248;149.138;2023-04-06T12:25:31;3.15;;;1.40;;
39930;SDS011;26635;-35.248;149.138;2023-04-06T12:28:02;3.00;;;1.50;;
39930;SDS011;26635;-35.248;149.138;2023-04-06T12:30:34;6.00;;;1.35;;
39930;SDS011;26635;-35.248;149.138;2023-04-06T12:33:04;3.13;;;1.40;;
39930;SDS011;26635;-35.248;149.138;2023-04-06T12:35:35;2.28;;;1.40;;
39930;SDS011;26635;-35.248;149.138;2023-04-06T12:38:06;2.53;;;1.50;;
39930;SDS011;26635;-35.248;149.138;2023-04-06T12:40:37;2.35;;;1.52;;
39930;SDS011;26635;-35.248;149.138;2023-04-06T12:43:08;2.47;;;1.88;;
39930;SDS011;26635;-35.248;149.138;2023-04-06T12:45:39;3.08;;;1.83;;
39930;SDS011;26635;-35.248;149.138;2023-04-06T12:48:10;4.85;;;1.60;;
39930;SDS011;26635;-35.248;149.138;2023-04-06T12:50:40;2.03;;;1.20;;
39930;SDS011;26635;-35.248;149.138;2023-04-06T12:53:10;4.05;;;1.30;;
39930;SDS011;26635;-35.248;149.138;2023-04-06T12:55:40;2.10;;;1.50;;
39930;SDS011;26635;-35.248;149.138;2023-04-06T12:58:11;2.72;;;1.48;;
39930;SDS011;26635;-35.248;149.138;2023-04-06T13:00:41;4.55;;;1.85;;
39930;SDS011;26635;-35.248;149.138;2023-04-06T13:03:12;3.13;;;1.55;;
39930;SDS011;26635;-35.248;149.138;2023-04-06T13:05:46;4.43;;;1.40;;
39930;SDS011;26635;-35.248;149.138;2023-04-06T13:08:21;2.92;;;1.30;;
39930;SDS011;26635;-35.248;149.138;2023-04-06T13:10:54;2.88;;;1.20;;
39930;SDS011;26635;-35.248;149.138;2023-04-06T13:13:25;3.17;;;1.10;;
39930;SDS011;26635;-35.248;149.138;2023-04-06T13:16:01;2.35;;;1.30;;
39930;SDS011;26635;-35.248;149.138;2023-04-06T13:18:33;2.50;;;1.55;;
39930;SDS011;26635;-35.248;149.138;2023-04-06T13:21:07;3.17;;;0.77;;
39930;SDS011;26635;-35.248;149.138;2023-04-06T13:23:43;2.60;;;1.27;;
39930;SDS011;26635;-35.248;149.138;2023-04-06T13:26:13;3.45;;;1.77;;
39930;SDS011;26635;-35.248;149.138;2023-04-06T13:28:45;3.55;;;1.40;;
39930;SDS011;26635;-35.248;149.138;2023-04-06T13:31:15;2.65;;;1.00;;
39930;SDS011;26635;-35.248;149.138;2023-04-06T13:33:45;2.80;;;1.13;;
39930;SDS011;26635;-35.248;149.138;2023-04-06T13:36:16;3.45;;;1.17;;
39930;SDS011;26635;-35.248;149.138;2023-04-06T13:38:46;3.13;;;1.20;;
39930;SDS011;26635;-35.248;149.138;2023-04-06T13:41:19;3.80;;;0.98;;
39930;SDS011;26635;-35.248;149.138;2023-04-06T13:43:50;1.48;;;1.05;;
39930;SDS011;26635;-35.248;149.138;2023-04-06T13:46:21;3.00;;;1.67;;
39930;SDS011;26635;-35.248;149.138;2023-04-06T13:48:53;6.07;;;1.63;;
39930;SDS011;26635;-35.248;149.138;2023-04-06T13:51:24;3.85;;;1.95;;
39930;SDS011;26635;-35.248;149.138;2023-04-06T13:53:55;4.07;;;1.60;;
39930;SDS011;26635;-35.248;149.138;2023-04-06T13:56:25;3.58;;;1.73;;
39930;SDS011;26635;-35.248;149.138;2023-04-06T13:58:58;4.50;;;2.00;;
39930;SDS011;26635;-35.248;149.138;2023-04-06T14:01:29;3.03;;;1.42;;
39930;SDS011;26635;-35.248;149.138;2023-04-06T14:04:00;2.75;;;1.40;;
39930;SDS011;26635;-35.248;149.138;2023-04-06T14:06:31;4.20;;;1.83;;
39930;SDS011;26635;-35.248;149.138;2023-04-06T14:09:02;3.67;;;1.67;;
39930;SDS011;26635;-35.248;149.138;2023-04-06T14:11:33;3.78;;;2.08;;
39930;SDS011;26635;-35.248;149.138;2023-04-06T14:14:06;6.10;;;1.98;;
39930;SDS011;26635;-35.248;149.138;2023-04-06T14:16:37;3.65;;;1.42;;
39930;SDS011;26635;-35.248;149.138;2023-04-06T14:19:08;2.55;;;1.55;;
39930;SDS011;26635;-35.248;149.138;2023-04-06T14:21:43;2.70;;;1.50;;
39930;SDS011;26635;-35.248;149.138;2023-04-06T14:24:17;4.63;;;1.20;;
39930;SDS011;26635;-35.248;149.138;2023-04-06T14:26:50;4.93;;;2.00;;
39930;SDS011;26635;-35.248;149.138;2023-04-06T14:29:21;7.97;;;2.35;;
39930;SDS011;26635;-35.248;149.138;2023-04-06T14:31:51;2.13;;;1.08;;
39930;SDS011;26635;-35.248;149.138;2023-04-06T14:34:28;2.03;;;1.10;;
39930;SDS011;26635;-35.248;149.138;2023-04-06T14:36:58;3.50;;;1.90;;
39930;SDS011;26635;-35.248;149.138;2023-04-06T14:39:29;4.53;;;1.67;;
39930;SDS011;26635;-35.248;149.138;2023-04-06T14:41:59;2.67;;;1.23;;